sensor_id;sensor_type;location;lat;lon;timestamp;temperature;humidity
43808;DHT22;29438;50.664;10.098;2023-02-04T00:00:58;4.00;81.90
43808;DHT22;29438;50.664;10.098;2023-02-04T00:03:24;4.00;82.00
43808;DHT22;29438;50.664;10.098;2023-02-04T00:05:50;4.00;82.10
43808;DHT22;29438;50.664;10.098;2023-02-04T00:08:15;4.00;81.80
43808;DHT22;29438;50.664;10.098;2023-02-04T00:10:41;4.00;81.70
43808;DHT22;29438;50.664;10.098;2023-02-04T00:13:06;4.00;81.80
43808;DHT22;29438;50.664;10.098;2023-02-04T00:15:32;4.00;82.10
43808;DHT22;29438;50.664;10.098;2023-02-04T00:17:58;4.00;82.10
43808;DHT22;29438;50.664;10.098;2023-02-04T00:20:24;4.00;82.30
43808;DHT22;29438;50.664;10.098;2023-02-04T00:22:49;4.00;82.10
43808;DHT22;29438;50.664;10.098;2023-02-04T00:25:16;4.00;82.20
43808;DHT22;29438;50.664;10.098;2023-02-04T00:27:42;4.00;82.40
43808;DHT22;29438;50.664;10.098;2023-02-04T00:30:07;4.00;82.30
43808;DHT22;29438;50.664;10.098;2023-02-04T00:32:34;3.90;83.00
43808;DHT22;29438;50.664;10.098;2023-02-04T00:34:59;3.70;83.50
43808;DHT22;29438;50.664;10.098;2023-02-04T00:37:29;3.70;84.00
43808;DHT22;29438;50.664;10.098;2023-02-04T00:39:55;3.70;84.70
43808;DHT22;29438;50.664;10.098;2023-02-04T00:42:20;3.60;85.60
43808;DHT22;29438;50.664;10.098;2023-02-04T00:44:46;3.50;86.00
43808;DHT22;29438;50.664;10.098;2023-02-04T00:47:11;3.50;86.80
43808;DHT22;29438;50.664;10.098;2023-02-04T00:49:37;3.40;87.10
43808;DHT22;29438;50.664;10.098;2023-02-04T00:52:02;3.40;87.10
43808;DHT22;29438;50.664;10.098;2023-02-04T00:54:28;3.40;87.60
43808;DHT22;29438;50.664;10.098;2023-02-04T00:56:54;3.30;87.90
43808;DHT22;29438;50.664;10.098;2023-02-04T00:59:19;3.30;87.90
43808;DHT22;29438;50.664;10.098;2023-02-04T01:01:45;3.30;88.10
43808;DHT22;29438;50.664;10.098;2023-02-04T01:04:10;3.20;88.70
43808;DHT22;29438;50.664;10.098;2023-02-04T01:06:36;3.20;88.60
43808;DHT22;29438;50.664;10.098;2023-02-04T01:09:02;3.20;88.90
43808;DHT22;29438;50.664;10.098;2023-02-04T01:11:29;3.10;89.30
43808;DHT22;29438;50.664;10.098;2023-02-04T01:13:55;3.10;89.10
43808;DHT22;29438;50.664;10.098;2023-02-04T01:16:21;3.10;89.40
43808;DHT22;29438;50.664;10.098;2023-02-04T01:18:47;3.10;89.70
43808;DHT22;29438;50.664;10.098;2023-02-04T01:21:12;3.10;90.10
43808;DHT22;29438;50.664;10.098;2023-02-04T01:23:38;3.10;90.10
43808;DHT22;29438;50.664;10.098;2023-02-04T01:26:04;3.00;90.20
43808;DHT22;29438;50.664;10.098;2023-02-04T01:28:29;3.00;90.10
43808;DHT22;29438;50.664;10.098;2023-02-04T01:30:55;3.00;90.10
43808;DHT22;29438;50.664;10.098;2023-02-04T01:33:20;3.00;90.20
43808;DHT22;29438;50.664;10.098;2023-02-04T01:35:46;3.10;90.40
43808;DHT22;29438;50.664;10.098;2023-02-04T01:38:12;3.10;90.40
43808;DHT22;29438;50.664;10.098;2023-02-04T01:40:38;3.10;90.30
43808;DHT22;29438;50.664;10.098;2023-02-04T01:43:03;3.10;90.20
43808;DHT22;29438;50.664;10.098;2023-02-04T01:45:29;3.10;90.60
43808;DHT22;29438;50.664;10.098;2023-02-04T01:47:58;3.00;90.60
43808;DHT22;29438;50.664;10.098;2023-02-04T01:50:23;3.00;90.80
43808;DHT22;29438;50.664;10.098;2023-02-04T01:52:49;3.00;90.80
43808;DHT22;29438;50.664;10.098;2023-02-04T01:55:18;3.00;91.00
43808;DHT22;29438;50.664;10.098;2023-02-04T01:57:44;3.00;91.10
43808;DHT22;29438;50.664;10.098;2023-02-04T02:00:30;3.00;91.20
43808;DHT22;29438;50.664;10.098;2023-02-04T02:02:56;3.00;91.20
43808;DHT22;29438;50.664;10.098;2023-02-04T02:05:30;3.00;91.40
43808;DHT22;29438;50.664;10.098;2023-02-04T02:07:57;3.00;91.20
43808;DHT22;29438;50.664;10.098;2023-02-04T02:10:25;3.00;91.20
43808;DHT22;29438;50.664;10.098;2023-02-04T02:12:51;2.90;91.20
43808;DHT22;29438;50.664;10.098;2023-02-04T02:15:19;2.90;91.20
43808;DHT22;29438;50.664;10.098;2023-02-04T02:17:44;3.00;90.80
43808;DHT22;29438;50.664;10.098;2023-02-04T02:20:13;3.00;90.50
43808;DHT22;29438;50.664;10.098;2023-02-04T02:25:17;2.90;90.40
43808;DHT22;29438;50.664;10.098;2023-02-04T02:27:42;2.80;90.60
43808;DHT22;29438;50.664;10.098;2023-02-04T02:30:10;2.80;90.60
43808;DHT22;29438;50.664;10.098;2023-02-04T02:32:36;2.70;90.70
43808;DHT22;29438;50.664;10.098;2023-02-04T02:35:03;2.60;90.70
43808;DHT22;29438;50.664;10.098;2023-02-04T02:37:29;2.50;90.70
43808;DHT22;29438;50.664;10.098;2023-02-04T02:39:55;2.60;90.70
43808;DHT22;29438;50.664;10.098;2023-02-04T02:42:21;2.60;90.60
43808;DHT22;29438;50.664;10.098;2023-02-04T02:44:47;2.70;90.70
43808;DHT22;29438;50.664;10.098;2023-02-04T02:47:19;2.80;90.20
43808;DHT22;29438;50.664;10.098;2023-02-04T02:49:47;2.80;89.90
43808;DHT22;29438;50.664;10.098;2023-02-04T02:52:13;2.80;89.80
43808;DHT22;29438;50.664;10.098;2023-02-04T02:54:39;2.70;89.70
43808;DHT22;29438;50.664;10.098;2023-02-04T02:57:14;2.70;89.60
43808;DHT22;29438;50.664;10.098;2023-02-04T02:59:40;2.80;89.60
43808;DHT22;29438;50.664;10.098;2023-02-04T03:02:07;2.80;89.80
43808;DHT22;29438;50.664;10.098;2023-02-04T03:04:37;2.80;89.70
43808;DHT22;29438;50.664;10.098;2023-02-04T03:07:03;2.90;89.50
43808;DHT22;29438;50.664;10.098;2023-02-04T03:09:29;2.90;89.30
43808;DHT22;29438;50.664;10.098;2023-02-04T03:11:54;2.90;89.20
43808;DHT22;29438;50.664;10.098;2023-02-04T03:14:21;2.80;89.40
43808;DHT22;29438;50.664;10.098;2023-02-04T03:16:48;2.60;89.60
43808;DHT22;29438;50.664;10.098;2023-02-04T03:19:14;2.60;90.00
43808;DHT22;29438;50.664;10.098;2023-02-04T03:21:40;2.70;90.00
43808;DHT22;29438;50.664;10.098;2023-02-04T03:24:06;2.80;90.10
43808;DHT22;29438;50.664;10.098;2023-02-04T03:26:32;2.80;90.00
43808;DHT22;29438;50.664;10.098;2023-02-04T03:28:58;2.90;90.00
43808;DHT22;29438;50.664;10.098;2023-02-04T03:31:23;2.90;90.20
43808;DHT22;29438;50.664;10.098;2023-02-04T03:33:49;2.80;90.20
43808;DHT22;29438;50.664;10.098;2023-02-04T03:36:15;2.90;90.40
43808;DHT22;29438;50.664;10.098;2023-02-04T03:38:40;2.90;90.80
43808;DHT22;29438;50.664;10.098;2023-02-04T03:41:06;2.80;90.80
43808;DHT22;29438;50.664;10.098;2023-02-04T03:43:31;2.90;90.90
43808;DHT22;29438;50.664;10.098;2023-02-04T03:45:57;2.90;91.20
43808;DHT22;29438;50.664;10.098;2023-02-04T03:48:22;2.80;91.40
43808;DHT22;29438;50.664;10.098;2023-02-04T03:50:48;2.80;91.30
43808;DHT22;29438;50.664;10.098;2023-02-04T03:53:13;2.50;91.00
43808;DHT22;29438;50.664;10.098;2023-02-04T03:55:39;2.40;91.60
43808;DHT22;29438;50.664;10.098;2023-02-04T03:58:05;2.30;92.00
43808;DHT22;29438;50.664;10.098;2023-02-04T04:00:30;2.30;92.30
43808;DHT22;29438;50.664;10.098;2023-02-04T04:02:57;2.20;92.50
43808;DHT22;29438;50.664;10.098;2023-02-04T04:05:23;2.20;92.50
43808;DHT22;29438;50.664;10.098;2023-02-04T04:07:49;2.10;92.70
43808;DHT22;29438;50.664;10.098;2023-02-04T04:10:14;2.10;92.70
43808;DHT22;29438;50.664;10.098;2023-02-04T04:12:40;2.10;92.80
43808;DHT22;29438;50.664;10.098;2023-02-04T04:15:06;2.00;92.80
43808;DHT22;29438;50.664;10.098;2023-02-04T04:17:32;2.00;93.00
43808;DHT22;29438;50.664;10.098;2023-02-04T04:19:57;2.10;93.00
43808;DHT22;29438;50.664;10.098;2023-02-04T04:22:23;2.00;93.10
43808;DHT22;29438;50.664;10.098;2023-02-04T04:24:48;2.00;93.00
43808;DHT22;29438;50.664;10.098;2023-02-04T04:27:14;1.90;92.90
43808;DHT22;29438;50.664;10.098;2023-02-04T04:29:39;1.90;93.00
43808;DHT22;29438;50.664;10.098;2023-02-04T04:32:05;1.90;92.90
43808;DHT22;29438;50.664;10.098;2023-02-04T04:34:30;1.90;93.00
43808;DHT22;29438;50.664;10.098;2023-02-04T04:36:56;1.90;92.90
43808;DHT22;29438;50.664;10.098;2023-02-04T04:39:21;2.00;92.90
43808;DHT22;29438;50.664;10.098;2023-02-04T04:41:47;2.00;92.80
43808;DHT22;29438;50.664;10.098;2023-02-04T04:44:12;2.00;92.80
43808;DHT22;29438;50.664;10.098;2023-02-04T04:46:38;2.00;92.70
43808;DHT22;29438;50.664;10.098;2023-02-04T04:49:05;2.00;93.00
43808;DHT22;29438;50.664;10.098;2023-02-04T04:51:30;2.10;93.00
43808;DHT22;29438;50.664;10.098;2023-02-04T04:53:57;2.10;93.00
43808;DHT22;29438;50.664;10.098;2023-02-04T04:56:22;2.10;93.00
43808;DHT22;29438;50.664;10.098;2023-02-04T04:58:48;2.10;92.90
43808;DHT22;29438;50.664;10.098;2023-02-04T05:01:14;2.10;92.80
43808;DHT22;29438;50.664;10.098;2023-02-04T05:03:39;2.00;92.70
43808;DHT22;29438;50.664;10.098;2023-02-04T05:06:05;2.00;92.60
43808;DHT22;29438;50.664;10.098;2023-02-04T05:08:30;2.00;92.30
43808;DHT22;29438;50.664;10.098;2023-02-04T05:10:56;1.80;92.30
43808;DHT22;29438;50.664;10.098;2023-02-04T05:13:21;1.90;92.50
43808;DHT22;29438;50.664;10.098;2023-02-04T05:15:49;1.90;92.30
43808;DHT22;29438;50.664;10.098;2023-02-04T05:18:15;2.00;91.90
43808;DHT22;29438;50.664;10.098;2023-02-04T05:20:40;2.00;91.90
43808;DHT22;29438;50.664;10.098;2023-02-04T05:23:06;2.00;91.70
43808;DHT22;29438;50.664;10.098;2023-02-04T05:25:31;1.90;91.60
43808;DHT22;29438;50.664;10.098;2023-02-04T05:27:57;1.90;91.70
43808;DHT22;29438;50.664;10.098;2023-02-04T05:30:22;1.90;91.70
43808;DHT22;29438;50.664;10.098;2023-02-04T05:32:48;2.00;91.70
43808;DHT22;29438;50.664;10.098;2023-02-04T05:35:13;2.00;91.50
43808;DHT22;29438;50.664;10.098;2023-02-04T05:37:39;2.00;91.10
43808;DHT22;29438;50.664;10.098;2023-02-04T05:40:04;2.00;90.80
43808;DHT22;29438;50.664;10.098;2023-02-04T05:42:30;2.20;90.50
43808;DHT22;29438;50.664;10.098;2023-02-04T05:44:56;2.10;90.70
43808;DHT22;29438;50.664;10.098;2023-02-04T05:47:21;1.70;91.60
43808;DHT22;29438;50.664;10.098;2023-02-04T05:49:47;1.50;92.20
43808;DHT22;29438;50.664;10.098;2023-02-04T05:52:12;1.40;92.50
43808;DHT22;29438;50.664;10.098;2023-02-04T05:54:38;1.30;92.60
43808;DHT22;29438;50.664;10.098;2023-02-04T05:57:03;1.30;92.70
43808;DHT22;29438;50.664;10.098;2023-02-04T05:59:29;1.30;92.70
43808;DHT22;29438;50.664;10.098;2023-02-04T06:01:55;1.30;92.70
43808;DHT22;29438;50.664;10.098;2023-02-04T06:04:20;1.30;92.70
43808;DHT22;29438;50.664;10.098;2023-02-04T06:06:46;1.20;92.70
43808;DHT22;29438;50.664;10.098;2023-02-04T06:09:11;1.20;92.70
43808;DHT22;29438;50.664;10.098;2023-02-04T06:11:37;1.20;92.60
43808;DHT22;29438;50.664;10.098;2023-02-04T06:14:02;1.20;92.40
43808;DHT22;29438;50.664;10.098;2023-02-04T06:16:28;1.10;92.40
43808;DHT22;29438;50.664;10.098;2023-02-04T06:18:53;1.00;92.40
43808;DHT22;29438;50.664;10.098;2023-02-04T06:21:19;1.10;92.40
43808;DHT22;29438;50.664;10.098;2023-02-04T06:23:45;1.00;92.30
43808;DHT22;29438;50.664;10.098;2023-02-04T06:26:10;1.00;92.30
43808;DHT22;29438;50.664;10.098;2023-02-04T06:28:36;1.00;92.10
43808;DHT22;29438;50.664;10.098;2023-02-04T06:31:02;1.00;92.20
43808;DHT22;29438;50.664;10.098;2023-02-04T06:33:27;1.00;92.20
43808;DHT22;29438;50.664;10.098;2023-02-04T06:35:53;1.00;92.20
43808;DHT22;29438;50.664;10.098;2023-02-04T06:38:19;1.00;92.30
43808;DHT22;29438;50.664;10.098;2023-02-04T06:40:44;0.90;92.30
43808;DHT22;29438;50.664;10.098;2023-02-04T06:43:14;0.90;92.40
43808;DHT22;29438;50.664;10.098;2023-02-04T06:45:39;0.90;92.50
43808;DHT22;29438;50.664;10.098;2023-02-04T06:48:05;0.90;92.50
43808;DHT22;29438;50.664;10.098;2023-02-04T06:50:31;0.90;92.40
43808;DHT22;29438;50.664;10.098;2023-02-04T06:52:56;0.90;92.40
43808;DHT22;29438;50.664;10.098;2023-02-04T06:55:22;1.00;92.40
43808;DHT22;29438;50.664;10.098;2023-02-04T06:57:47;1.00;92.50
43808;DHT22;29438;50.664;10.098;2023-02-04T07:00:13;1.10;92.60
43808;DHT22;29438;50.664;10.098;2023-02-04T07:02:39;1.10;92.70
43808;DHT22;29438;50.664;10.098;2023-02-04T07:05:06;1.10;92.70
43808;DHT22;29438;50.664;10.098;2023-02-04T07:07:33;1.20;92.80
43808;DHT22;29438;50.664;10.098;2023-02-04T07:09:59;1.20;92.80
43808;DHT22;29438;50.664;10.098;2023-02-04T07:12:25;1.10;92.70
43808;DHT22;29438;50.664;10.098;2023-02-04T07:14:50;1.00;92.50
43808;DHT22;29438;50.664;10.098;2023-02-04T07:17:16;1.00;92.50
43808;DHT22;29438;50.664;10.098;2023-02-04T07:19:41;1.10;92.50
43808;DHT22;29438;50.664;10.098;2023-02-04T07:22:07;1.10;92.50
43808;DHT22;29438;50.664;10.098;2023-02-04T07:24:32;1.20;92.60
43808;DHT22;29438;50.664;10.098;2023-02-04T07:26:58;1.20;92.70
43808;DHT22;29438;50.664;10.098;2023-02-04T07:29:23;1.30;92.70
43808;DHT22;29438;50.664;10.098;2023-02-04T07:31:49;1.50;92.90
43808;DHT22;29438;50.664;10.098;2023-02-04T07:34:17;1.60;92.80
43808;DHT22;29438;50.664;10.098;2023-02-04T07:36:42;1.80;92.90
43808;DHT22;29438;50.664;10.098;2023-02-04T07:39:08;1.70;92.40
43808;DHT22;29438;50.664;10.098;2023-02-04T07:41:35;1.60;91.80
43808;DHT22;29438;50.664;10.098;2023-02-04T07:44:00;1.60;91.70
43808;DHT22;29438;50.664;10.098;2023-02-04T07:46:26;1.70;91.70
43808;DHT22;29438;50.664;10.098;2023-02-04T07:48:52;1.60;91.60
43808;DHT22;29438;50.664;10.098;2023-02-04T07:51:17;1.70;91.40
43808;DHT22;29438;50.664;10.098;2023-02-04T07:53:43;1.70;91.10
43808;DHT22;29438;50.664;10.098;2023-02-04T07:56:08;1.70;91.10
43808;DHT22;29438;50.664;10.098;2023-02-04T07:58:34;1.90;91.20
43808;DHT22;29438;50.664;10.098;2023-02-04T08:00:59;1.90;91.10
43808;DHT22;29438;50.664;10.098;2023-02-04T08:03:25;1.80;90.80
43808;DHT22;29438;50.664;10.098;2023-02-04T08:05:51;1.80;90.60
43808;DHT22;29438;50.664;10.098;2023-02-04T08:08:17;1.70;90.00
43808;DHT22;29438;50.664;10.098;2023-02-04T08:10:42;1.80;90.00
43808;DHT22;29438;50.664;10.098;2023-02-04T08:13:08;1.70;90.10
43808;DHT22;29438;50.664;10.098;2023-02-04T08:15:33;1.80;90.10
43808;DHT22;29438;50.664;10.098;2023-02-04T08:17:59;1.90;90.10
43808;DHT22;29438;50.664;10.098;2023-02-04T08:20:24;1.90;89.80
43808;DHT22;29438;50.664;10.098;2023-02-04T08:22:50;1.80;89.30
43808;DHT22;29438;50.664;10.098;2023-02-04T08:25:15;1.80;89.30
43808;DHT22;29438;50.664;10.098;2023-02-04T08:27:41;1.80;89.50
43808;DHT22;29438;50.664;10.098;2023-02-04T08:30:08;1.80;89.60
43808;DHT22;29438;50.664;10.098;2023-02-04T08:32:33;1.90;89.10
43808;DHT22;29438;50.664;10.098;2023-02-04T08:34:59;2.00;88.70
43808;DHT22;29438;50.664;10.098;2023-02-04T08:37:25;2.00;88.40
43808;DHT22;29438;50.664;10.098;2023-02-04T08:39:50;2.00;88.10
43808;DHT22;29438;50.664;10.098;2023-02-04T08:42:16;2.10;88.40
43808;DHT22;29438;50.664;10.098;2023-02-04T08:44:42;2.20;88.60
43808;DHT22;29438;50.664;10.098;2023-02-04T08:47:08;2.30;88.70
43808;DHT22;29438;50.664;10.098;2023-02-04T08:49:34;2.50;88.50
43808;DHT22;29438;50.664;10.098;2023-02-04T08:52:00;2.50;87.40
43808;DHT22;29438;50.664;10.098;2023-02-04T08:54:27;2.60;87.00
43808;DHT22;29438;50.664;10.098;2023-02-04T08:56:53;2.50;86.90
43808;DHT22;29438;50.664;10.098;2023-02-04T08:59:18;2.30;86.50
43808;DHT22;29438;50.664;10.098;2023-02-04T09:01:46;2.30;86.60
43808;DHT22;29438;50.664;10.098;2023-02-04T09:04:13;2.40;87.40
43808;DHT22;29438;50.664;10.098;2023-02-04T09:06:39;2.40;86.70
43808;DHT22;29438;50.664;10.098;2023-02-04T09:09:04;2.50;86.90
43808;DHT22;29438;50.664;10.098;2023-02-04T09:11:30;2.50;86.40
43808;DHT22;29438;50.664;10.098;2023-02-04T09:13:55;2.60;86.30
43808;DHT22;29438;50.664;10.098;2023-02-04T09:16:21;2.60;86.40
43808;DHT22;29438;50.664;10.098;2023-02-04T09:18:47;2.60;86.20
43808;DHT22;29438;50.664;10.098;2023-02-04T09:21:12;2.50;86.10
43808;DHT22;29438;50.664;10.098;2023-02-04T09:23:38;2.50;86.00
43808;DHT22;29438;50.664;10.098;2023-02-04T09:26:04;2.80;85.70
43808;DHT22;29438;50.664;10.098;2023-02-04T09:28:31;3.10;85.50
43808;DHT22;29438;50.664;10.098;2023-02-04T09:30:56;3.20;84.70
43808;DHT22;29438;50.664;10.098;2023-02-04T09:33:22;3.80;84.50
43808;DHT22;29438;50.664;10.098;2023-02-04T09:35:48;4.50;81.90
43808;DHT22;29438;50.664;10.098;2023-02-04T09:38:14;4.70;80.90
43808;DHT22;29438;50.664;10.098;2023-02-04T09:40:42;4.00;80.30
43808;DHT22;29438;50.664;10.098;2023-02-04T09:43:12;3.70;82.90
43808;DHT22;29438;50.664;10.098;2023-02-04T09:45:40;3.20;81.80
43808;DHT22;29438;50.664;10.098;2023-02-04T09:48:06;2.80;82.80
43808;DHT22;29438;50.664;10.098;2023-02-04T09:50:32;2.90;84.50
43808;DHT22;29438;50.664;10.098;2023-02-04T09:53:00;2.80;85.50
43808;DHT22;29438;50.664;10.098;2023-02-04T09:55:34;2.70;85.10
43808;DHT22;29438;50.664;10.098;2023-02-04T09:58:00;2.70;84.00
43808;DHT22;29438;50.664;10.098;2023-02-04T10:00:29;2.80;84.50
43808;DHT22;29438;50.664;10.098;2023-02-04T10:02:59;2.80;85.00
43808;DHT22;29438;50.664;10.098;2023-02-04T10:05:29;2.60;85.20
43808;DHT22;29438;50.664;10.098;2023-02-04T10:07:55;3.00;83.40
43808;DHT22;29438;50.664;10.098;2023-02-04T10:10:22;3.10;80.80
43808;DHT22;29438;50.664;10.098;2023-02-04T10:12:51;3.90;80.60
43808;DHT22;29438;50.664;10.098;2023-02-04T10:15:18;4.10;77.00
43808;DHT22;29438;50.664;10.098;2023-02-04T10:17:45;4.80;76.80
43808;DHT22;29438;50.664;10.098;2023-02-04T10:20:17;5.20;73.30
43808;DHT22;29438;50.664;10.098;2023-02-04T10:22:43;6.30;72.40
43808;DHT22;29438;50.664;10.098;2023-02-04T10:25:13;6.30;69.40
43808;DHT22;29438;50.664;10.098;2023-02-04T10:27:53;5.90;69.30
43808;DHT22;29438;50.664;10.098;2023-02-04T10:30:24;6.20;67.80
43808;DHT22;29438;50.664;10.098;2023-02-04T10:32:51;6.80;67.60
43808;DHT22;29438;50.664;10.098;2023-02-04T10:35:19;6.00;68.80
43808;DHT22;29438;50.664;10.098;2023-02-04T10:37:45;6.50;71.50
43808;DHT22;29438;50.664;10.098;2023-02-04T10:40:34;6.30;68.40
43808;DHT22;29438;50.664;10.098;2023-02-04T10:43:13;6.30;69.10
43808;DHT22;29438;50.664;10.098;2023-02-04T10:45:44;5.60;69.40
43808;DHT22;29438;50.664;10.098;2023-02-04T10:48:17;4.80;70.20
43808;DHT22;29438;50.664;10.098;2023-02-04T10:50:47;4.60;69.90
43808;DHT22;29438;50.664;10.098;2023-02-04T10:53:16;4.30;69.60
43808;DHT22;29438;50.664;10.098;2023-02-04T10:56:00;3.80;72.60
43808;DHT22;29438;50.664;10.098;2023-02-04T10:58:28;4.30;72.90
43808;DHT22;29438;50.664;10.098;2023-02-04T11:00:54;4.70;71.90
43808;DHT22;29438;50.664;10.098;2023-02-04T11:03:25;4.90;71.20
43808;DHT22;29438;50.664;10.098;2023-02-04T11:05:52;4.90;71.10
43808;DHT22;29438;50.664;10.098;2023-02-04T11:08:32;4.30;70.80
43808;DHT22;29438;50.664;10.098;2023-02-04T11:11:04;4.10;70.40
43808;DHT22;29438;50.664;10.098;2023-02-04T11:14:03;4.00;72.10
43808;DHT22;29438;50.664;10.098;2023-02-04T11:16:32;3.90;72.60
43808;DHT22;29438;50.664;10.098;2023-02-04T11:19:02;3.60;73.30
43808;DHT22;29438;50.664;10.098;2023-02-04T11:26:44;3.10;74.50
43808;DHT22;29438;50.664;10.098;2023-02-04T11:29:30;3.00;75.20
43808;DHT22;29438;50.664;10.098;2023-02-04T11:34:49;2.80;74.90
43808;DHT22;29438;50.664;10.098;2023-02-04T11:37:27;2.90;75.80
43808;DHT22;29438;50.664;10.098;2023-02-04T11:39:59;2.90;74.10
43808;DHT22;29438;50.664;10.098;2023-02-04T11:42:42;2.90;74.40
43808;DHT22;29438;50.664;10.098;2023-02-04T11:45:17;3.00;73.40
43808;DHT22;29438;50.664;10.098;2023-02-04T11:47:45;3.30;74.10
43808;DHT22;29438;50.664;10.098;2023-02-04T11:50:26;3.50;72.60
43808;DHT22;29438;50.664;10.098;2023-02-04T11:52:55;3.50;72.40
43808;DHT22;29438;50.664;10.098;2023-02-04T11:55:21;3.60;71.80
43808;DHT22;29438;50.664;10.098;2023-02-04T11:57:53;3.70;71.10
43808;DHT22;29438;50.664;10.098;2023-02-04T12:02:50;4.20;71.00
43808;DHT22;29438;50.664;10.098;2023-02-04T12:05:18;3.70;70.20
43808;DHT22;29438;50.664;10.098;2023-02-04T12:07:45;3.30;71.70
43808;DHT22;29438;50.664;10.098;2023-02-04T12:10:18;3.30;72.50
43808;DHT22;29438;50.664;10.098;2023-02-04T12:12:54;3.60;73.40
43808;DHT22;29438;50.664;10.098;2023-02-04T12:15:31;3.80;73.60
43808;DHT22;29438;50.664;10.098;2023-02-04T12:18:01;3.90;71.30
43808;DHT22;29438;50.664;10.098;2023-02-04T12:20:27;4.00;70.20
43808;DHT22;29438;50.664;10.098;2023-02-04T12:22:53;4.10;72.20
43808;DHT22;29438;50.664;10.098;2023-02-04T12:25:18;4.30;71.10
43808;DHT22;29438;50.664;10.098;2023-02-04T12:27:44;4.50;71.40
43808;DHT22;29438;50.664;10.098;2023-02-04T12:30:10;4.10;69.40
43808;DHT22;29438;50.664;10.098;2023-02-04T12:32:36;4.20;70.10
43808;DHT22;29438;50.664;10.098;2023-02-04T12:35:02;4.50;70.70
43808;DHT22;29438;50.664;10.098;2023-02-04T12:37:28;5.00;71.00
43808;DHT22;29438;50.664;10.098;2023-02-04T12:39:53;5.50;70.40
43808;DHT22;29438;50.664;10.098;2023-02-04T12:42:19;5.70;67.60
43808;DHT22;29438;50.664;10.098;2023-02-04T12:44:44;5.00;66.30
43808;DHT22;29438;50.664;10.098;2023-02-04T12:47:10;4.40;67.20
43808;DHT22;29438;50.664;10.098;2023-02-04T12:49:35;4.00;68.40
43808;DHT22;29438;50.664;10.098;2023-02-04T12:52:03;4.10;69.70
43808;DHT22;29438;50.664;10.098;2023-02-04T12:54:28;3.90;69.90
43808;DHT22;29438;50.664;10.098;2023-02-04T12:56:54;3.90;69.20
43808;DHT22;29438;50.664;10.098;2023-02-04T12:59:23;3.90;69.40
43808;DHT22;29438;50.664;10.098;2023-02-04T13:01:48;3.80;68.80
43808;DHT22;29438;50.664;10.098;2023-02-04T13:04:14;3.90;69.60
43808;DHT22;29438;50.664;10.098;2023-02-04T13:06:39;3.80;72.20
43808;DHT22;29438;50.664;10.098;2023-02-04T13:09:05;3.50;73.20
43808;DHT22;29438;50.664;10.098;2023-02-04T13:11:31;3.30;70.50
43808;DHT22;29438;50.664;10.098;2023-02-04T13:13:56;3.40;74.50
43808;DHT22;29438;50.664;10.098;2023-02-04T13:16:22;3.30;73.70
43808;DHT22;29438;50.664;10.098;2023-02-04T13:18:49;3.30;72.70
43808;DHT22;29438;50.664;10.098;2023-02-04T13:21:15;3.20;72.60
43808;DHT22;29438;50.664;10.098;2023-02-04T13:23:41;3.00;71.70
43808;DHT22;29438;50.664;10.098;2023-02-04T13:26:06;3.10;71.20
43808;DHT22;29438;50.664;10.098;2023-02-04T13:28:34;3.10;70.70
43808;DHT22;29438;50.664;10.098;2023-02-04T13:30:59;3.00;72.80
43808;DHT22;29438;50.664;10.098;2023-02-04T13:33:25;3.00;71.30
43808;DHT22;29438;50.664;10.098;2023-02-04T13:35:51;3.00;72.30
43808;DHT22;29438;50.664;10.098;2023-02-04T13:38:16;3.10;73.60
43808;DHT22;29438;50.664;10.098;2023-02-04T13:40:42;3.20;71.80
43808;DHT22;29438;50.664;10.098;2023-02-04T13:43:07;3.20;71.60
43808;DHT22;29438;50.664;10.098;2023-02-04T13:45:33;3.20;71.80
43808;DHT22;29438;50.664;10.098;2023-02-04T13:47:59;3.30;71.40
43808;DHT22;29438;50.664;10.098;2023-02-04T13:50:24;3.20;70.00
43808;DHT22;29438;50.664;10.098;2023-02-04T13:52:50;3.20;70.20
43808;DHT22;29438;50.664;10.098;2023-02-04T13:55:15;3.20;71.20
43808;DHT22;29438;50.664;10.098;2023-02-04T13:57:41;3.10;70.80
43808;DHT22;29438;50.664;10.098;2023-02-04T14:00:07;3.10;73.30
43808;DHT22;29438;50.664;10.098;2023-02-04T14:02:33;3.10;72.10
43808;DHT22;29438;50.664;10.098;2023-02-04T14:04:58;3.00;71.70
43808;DHT22;29438;50.664;10.098;2023-02-04T14:07:24;2.90;71.80
43808;DHT22;29438;50.664;10.098;2023-02-04T14:09:49;2.80;72.10
43808;DHT22;29438;50.664;10.098;2023-02-04T14:12:15;2.70;74.60
43808;DHT22;29438;50.664;10.098;2023-02-04T14:14:40;2.60;73.90
43808;DHT22;29438;50.664;10.098;2023-02-04T14:17:06;2.60;75.30
43808;DHT22;29438;50.664;10.098;2023-02-04T14:19:31;2.50;75.70
43808;DHT22;29438;50.664;10.098;2023-02-04T14:21:57;2.60;74.30
43808;DHT22;29438;50.664;10.098;2023-02-04T14:24:23;2.60;73.30
43808;DHT22;29438;50.664;10.098;2023-02-04T14:26:49;2.50;73.30
43808;DHT22;29438;50.664;10.098;2023-02-04T14:29:15;2.50;73.60
43808;DHT22;29438;50.664;10.098;2023-02-04T14:31:40;2.50;73.70
43808;DHT22;29438;50.664;10.098;2023-02-04T14:34:06;2.50;73.60
43808;DHT22;29438;50.664;10.098;2023-02-04T14:36:32;2.50;73.80
43808;DHT22;29438;50.664;10.098;2023-02-04T14:38:57;2.40;75.30
43808;DHT22;29438;50.664;10.098;2023-02-04T14:41:23;2.30;74.20
43808;DHT22;29438;50.664;10.098;2023-02-04T14:43:50;2.30;74.80
43808;DHT22;29438;50.664;10.098;2023-02-04T14:46:17;2.20;74.40
43808;DHT22;29438;50.664;10.098;2023-02-04T14:48:43;2.20;74.20
43808;DHT22;29438;50.664;10.098;2023-02-04T14:51:10;2.20;74.40
43808;DHT22;29438;50.664;10.098;2023-02-04T14:53:35;2.10;75.40
43808;DHT22;29438;50.664;10.098;2023-02-04T14:56:01;1.90;77.40
43808;DHT22;29438;50.664;10.098;2023-02-04T14:58:26;1.90;77.70
43808;DHT22;29438;50.664;10.098;2023-02-04T15:00:52;1.80;78.40
43808;DHT22;29438;50.664;10.098;2023-02-04T15:03:17;1.80;78.50
43808;DHT22;29438;50.664;10.098;2023-02-04T15:05:43;1.80;78.70
43808;DHT22;29438;50.664;10.098;2023-02-04T15:08:09;1.80;79.70
43808;DHT22;29438;50.664;10.098;2023-02-04T15:10:34;1.70;79.80
43808;DHT22;29438;50.664;10.098;2023-02-04T15:13:00;1.60;79.70
43808;DHT22;29438;50.664;10.098;2023-02-04T15:15:25;1.50;79.80
43808;DHT22;29438;50.664;10.098;2023-02-04T15:17:51;1.40;80.30
43808;DHT22;29438;50.664;10.098;2023-02-04T15:20:16;1.30;80.90
43808;DHT22;29438;50.664;10.098;2023-02-04T15:22:42;1.30;80.80
43808;DHT22;29438;50.664;10.098;2023-02-04T15:25:09;1.30;80.90
43808;DHT22;29438;50.664;10.098;2023-02-04T15:27:35;1.30;81.00
43808;DHT22;29438;50.664;10.098;2023-02-04T15:30:00;1.30;81.30
43808;DHT22;29438;50.664;10.098;2023-02-04T15:32:26;1.20;81.70
43808;DHT22;29438;50.664;10.098;2023-02-04T15:34:51;1.20;82.20
43808;DHT22;29438;50.664;10.098;2023-02-04T15:37:17;1.20;82.70
43808;DHT22;29438;50.664;10.098;2023-02-04T15:39:42;1.20;82.90